UAE538 OMDB-VAAH
Flight info
| Callsign | UAE538 |
|---|---|
| Flight time | 2h 15m |
| Altitude | 41000 |
| Route | ANVIX L223 TARDI N629 MUSUK T511 MCT DCT SEVLA DCT KIPOL N881 RASKI L639 GUREV DCT VASLA VASLA1A |
| Aircraft | A359/H-SDE2E3GHIJ3J4J5LM1ORWXY/LB1D1 |
Departure
| Time | 2026-04-22 19:45 |
|---|---|
| Airport | Dubai International Airport (OMDB) |
Arrival
| Time | 2026-04-22 22:00 |
|---|---|
| Airport | Sardar Vallabh Patel International Airport (VAAH) |
| Time | Latitude | Longitude | Altitude | Speed | Heading |
|---|---|---|---|---|---|
| 2026-04-22 19:10 | 25.24195 | 55.37247 | 27 ft | 0 kts | 31° |
| 2026-04-22 19:12 | 25.24199 | 55.37250 | 27 ft | 0 kts | 31° |
| 2026-04-22 19:35 | 25.24189 | 55.37243 | 27 ft | 3 kts | 31° |
| 2026-04-22 19:35 | 25.24172 | 55.37231 | 27 ft | 3 kts | 31° |
| 2026-04-22 19:35 | 25.24160 | 55.37223 | 26 ft | 3 kts | 30° |
| 2026-04-22 19:35 | 25.24137 | 55.37208 | 24 ft | 3 kts | 35° |
| 2026-04-22 19:36 | 25.24122 | 55.37195 | 26 ft | 3 kts | 64° |
| 2026-04-22 19:36 | 25.24119 | 55.37183 | 24 ft | 1 kts | 121° |
| 2026-04-22 19:36 | 25.24126 | 55.37171 | 26 ft | 3 kts | 122° |
| 2026-04-22 19:36 | 25.24136 | 55.37153 | 25 ft | 2 kts | 122° |
| 2026-04-22 19:37 | 25.24139 | 55.37148 | 25 ft | 0 kts | 122° |
| 2026-04-22 19:37 | 25.24138 | 55.37148 | 25 ft | 0 kts | 122° |
| 2026-04-22 19:40 | 25.24134 | 55.37156 | 27 ft | 4 kts | 121° |
| 2026-04-22 19:40 | 25.24110 | 55.37200 | 27 ft | 10 kts | 121° |
| 2026-04-22 19:41 | 25.24066 | 55.37279 | 27 ft | 14 kts | 121° |
| 2026-04-22 19:41 | 25.24006 | 55.37385 | 27 ft | 18 kts | 122° |
| 2026-04-22 19:41 | 25.23972 | 55.37523 | 27 ft | 20 kts | 80° |
| 2026-04-22 19:41 | 25.24060 | 55.37633 | 27 ft | 17 kts | 32° |
| 2026-04-22 19:42 | 25.24169 | 55.37707 | 28 ft | 20 kts | 32° |
| 2026-04-22 19:42 | 25.24294 | 55.37791 | 29 ft | 22 kts | 32° |
| 2026-04-22 19:42 | 25.24423 | 55.37886 | 35 ft | 22 kts | 35° |
| 2026-04-22 19:42 | 25.24552 | 55.37984 | 33 ft | 25 kts | 34° |
| 2026-04-22 19:43 | 25.24740 | 55.38112 | 36 ft | 12 kts | 18° |
| 2026-04-22 19:43 | 25.24760 | 55.38104 | 37 ft | 2 kts | 324° |
| 2026-04-22 19:43 | 25.24773 | 55.38086 | 37 ft | 0 kts | 302° |
| 2026-04-22 19:44 | 25.24799 | 55.38041 | 36 ft | 31 kts | 302° |
| 2026-04-22 19:44 | 25.25051 | 55.37588 | 38 ft | 104 kts | 302° |
| 2026-04-22 19:44 | 25.25359 | 55.37032 | 36 ft | 146 kts | 301° |
| 2026-04-22 19:45 | 25.26163 | 55.35558 | 523 ft | 177 kts | 302° |
| 2026-04-22 19:45 | 25.26592 | 55.34761 | 994 ft | 179 kts | 302° |
| 2026-04-22 19:45 | 25.27226 | 55.33617 | 1838 ft | 175 kts | 303° |
| 2026-04-22 19:45 | 25.27881 | 55.32458 | 2164 ft | 184 kts | 303° |
| 2026-04-22 19:46 | 25.28587 | 55.31204 | 2343 ft | 201 kts | 303° |
| 2026-04-22 19:46 | 25.29198 | 55.29732 | 2458 ft | 222 kts | 283° |
| 2026-04-22 19:46 | 25.29005 | 55.28009 | 2767 ft | 234 kts | 249° |
| 2026-04-22 19:46 | 25.28331 | 55.26380 | 3285 ft | 237 kts | 244° |
| 2026-04-22 19:47 | 25.27596 | 55.24731 | 3780 ft | 241 kts | 245° |
| 2026-04-22 19:47 | 25.26857 | 55.23049 | 4394 ft | 239 kts | 245° |
| 2026-04-22 19:47 | 25.26157 | 55.21434 | 5070 ft | 234 kts | 245° |
| 2026-04-22 19:47 | 25.25461 | 55.19819 | 5645 ft | 233 kts | 245° |
| 2026-04-22 19:48 | 25.24697 | 55.18245 | 6209 ft | 233 kts | 235° |
| 2026-04-22 19:48 | 25.23484 | 55.17071 | 6719 ft | 236 kts | 208° |
| 2026-04-22 19:48 | 25.21855 | 55.16677 | 7080 ft | 248 kts | 182° |
| 2026-04-22 19:48 | 25.20113 | 55.16861 | 7507 ft | 256 kts | 169° |
| 2026-04-22 19:49 | 25.18505 | 55.17721 | 8030 ft | 263 kts | 144° |
| 2026-04-22 19:49 | 25.17313 | 55.19326 | 8303 ft | 281 kts | 123° |
| 2026-04-22 19:49 | 25.16383 | 55.21271 | 8631 ft | 291 kts | 120° |
| 2026-04-22 19:49 | 25.15468 | 55.23273 | 9096 ft | 294 kts | 120° |
| 2026-04-22 19:50 | 25.14531 | 55.25285 | 9623 ft | 296 kts | 121° |
| 2026-04-22 19:50 | 25.13576 | 55.27309 | 10069 ft | 299 kts | 121° |
| 2026-04-22 19:50 | 25.12605 | 55.29355 | 10484 ft | 303 kts | 121° |
| 2026-04-22 19:50 | 25.11615 | 55.31420 | 10940 ft | 305 kts | 121° |
| 2026-04-22 19:51 | 25.10615 | 55.33500 | 11400 ft | 308 kts | 121° |
| 2026-04-22 19:51 | 25.09676 | 55.35640 | 11864 ft | 312 kts | 117° |
| 2026-04-22 19:51 | 25.08797 | 55.37833 | 12339 ft | 314 kts | 116° |
| 2026-04-22 19:51 | 25.07907 | 55.40049 | 12798 ft | 317 kts | 116° |
| 2026-04-22 19:52 | 25.07005 | 55.42275 | 13272 ft | 320 kts | 116° |
| 2026-04-22 19:52 | 25.06123 | 55.44552 | 13652 ft | 326 kts | 115° |
| 2026-04-22 19:52 | 25.05243 | 55.46875 | 14011 ft | 330 kts | 115° |
| 2026-04-22 19:52 | 25.04352 | 55.49216 | 14415 ft | 333 kts | 115° |
| 2026-04-22 19:53 | 25.03447 | 55.51580 | 14830 ft | 335 kts | 115° |
| 2026-04-22 19:53 | 25.02534 | 55.53954 | 15284 ft | 337 kts | 114° |
| 2026-04-22 19:53 | 25.01514 | 55.56243 | 15693 ft | 339 kts | 121° |
| 2026-04-22 19:53 | 25.00323 | 55.58496 | 16105 ft | 342 kts | 122° |
| 2026-04-22 19:54 | 24.99099 | 55.60755 | 16523 ft | 345 kts | 122° |
| 2026-04-22 19:54 | 24.97862 | 55.63035 | 16953 ft | 347 kts | 122° |
| 2026-04-22 19:54 | 24.96640 | 55.65343 | 17367 ft | 351 kts | 119° |
| 2026-04-22 19:54 | 24.95727 | 55.67853 | 17767 ft | 355 kts | 109° |
| 2026-04-22 19:55 | 24.95027 | 55.70476 | 18142 ft | 360 kts | 105° |
| 2026-04-22 19:55 | 24.94417 | 55.73186 | 18313 ft | 369 kts | 104° |
| 2026-04-22 19:55 | 24.93849 | 55.75986 | 18465 ft | 379 kts | 103° |
| 2026-04-22 19:55 | 24.93292 | 55.78862 | 18613 ft | 388 kts | 103° |
| 2026-04-22 19:56 | 24.92725 | 55.81800 | 18753 ft | 396 kts | 103° |
| 2026-04-22 19:56 | 24.92139 | 55.84795 | 18878 ft | 404 kts | 103° |
| 2026-04-22 19:56 | 24.91532 | 55.87854 | 18999 ft | 412 kts | 103° |
| 2026-04-22 19:56 | 24.90905 | 55.90964 | 19128 ft | 419 kts | 103° |
| 2026-04-22 19:57 | 24.90266 | 55.94111 | 19351 ft | 423 kts | 103° |
| 2026-04-22 19:57 | 24.89621 | 55.97276 | 19609 ft | 425 kts | 103° |
| 2026-04-22 19:57 | 24.88971 | 56.00456 | 19924 ft | 426 kts | 103° |
| 2026-04-22 19:57 | 24.88320 | 56.03643 | 20204 ft | 428 kts | 103° |
| 2026-04-22 19:58 | 24.87665 | 56.06851 | 20457 ft | 430 kts | 103° |
| 2026-04-22 19:58 | 24.87007 | 56.10068 | 20724 ft | 432 kts | 103° |
| 2026-04-22 19:58 | 24.86343 | 56.13303 | 20992 ft | 434 kts | 103° |
| 2026-04-22 19:58 | 24.85677 | 56.16548 | 21235 ft | 436 kts | 103° |
| 2026-04-22 19:59 | 24.85005 | 56.19813 | 21491 ft | 438 kts | 104° |
| 2026-04-22 20:00 | 24.80907 | 56.39682 | 22972 ft | 450 kts | 104° |
| 2026-04-22 20:00 | 24.80210 | 56.43046 | 23201 ft | 452 kts | 104° |
| 2026-04-22 20:01 | 24.79509 | 56.46426 | 23414 ft | 454 kts | 104° |
| 2026-04-22 20:01 | 24.78807 | 56.49811 | 23631 ft | 455 kts | 104° |
| 2026-04-22 20:01 | 24.78100 | 56.53212 | 23836 ft | 457 kts | 104° |
| 2026-04-22 20:01 | 24.77391 | 56.56620 | 24072 ft | 457 kts | 104° |
| 2026-04-22 20:02 | 24.76681 | 56.60031 | 24295 ft | 458 kts | 104° |
| 2026-04-22 20:02 | 24.75968 | 56.63449 | 24488 ft | 460 kts | 104° |
| 2026-04-22 20:02 | 24.75250 | 56.66884 | 24694 ft | 461 kts | 104° |
| 2026-04-22 20:02 | 24.74530 | 56.70329 | 24898 ft | 463 kts | 104° |
| 2026-04-22 20:03 | 24.73808 | 56.73781 | 25110 ft | 464 kts | 104° |
| 2026-04-22 20:03 | 24.73082 | 56.77243 | 25296 ft | 466 kts | 104° |
| 2026-04-22 20:03 | 24.72350 | 56.80729 | 25515 ft | 467 kts | 104° |
| 2026-04-22 20:03 | 24.71618 | 56.84214 | 25727 ft | 469 kts | 104° |
| 2026-04-22 20:04 | 24.70882 | 56.87712 | 25924 ft | 471 kts | 104° |
| 2026-04-22 20:04 | 24.70142 | 56.91225 | 26141 ft | 472 kts | 104° |
| 2026-04-22 20:04 | 24.69400 | 56.94747 | 26361 ft | 474 kts | 103° |
| 2026-04-22 20:04 | 24.68652 | 56.98288 | 26573 ft | 475 kts | 103° |
| 2026-04-22 20:05 | 24.67902 | 57.01836 | 26808 ft | 477 kts | 103° |
| 2026-04-22 20:05 | 24.67150 | 57.05389 | 27032 ft | 479 kts | 103° |
| 2026-04-22 20:05 | 24.66402 | 57.08915 | 27253 ft | 480 kts | 103° |
| 2026-04-22 20:05 | 24.65633 | 57.12544 | 27505 ft | 481 kts | 104° |
| 2026-04-22 20:06 | 24.64883 | 57.16073 | 27827 ft | 481 kts | 104° |
| 2026-04-22 20:06 | 24.64119 | 57.19667 | 28034 ft | 483 kts | 104° |
| 2026-04-22 20:06 | 24.63352 | 57.23265 | 28273 ft | 485 kts | 104° |
| 2026-04-22 20:06 | 24.62580 | 57.26885 | 28515 ft | 487 kts | 104° |
| 2026-04-22 20:07 | 24.61806 | 57.30510 | 28753 ft | 489 kts | 103° |
| 2026-04-22 20:07 | 24.61026 | 57.34161 | 29015 ft | 491 kts | 103° |
| 2026-04-22 20:07 | 24.60243 | 57.37816 | 29257 ft | 492 kts | 103° |
| 2026-04-22 20:07 | 24.59460 | 57.41475 | 29572 ft | 493 kts | 104° |
| 2026-04-22 20:08 | 24.58672 | 57.45145 | 29863 ft | 494 kts | 104° |
| 2026-04-22 20:08 | 24.57880 | 57.48829 | 30075 ft | 497 kts | 104° |
| 2026-04-22 20:08 | 24.57084 | 57.52529 | 30278 ft | 499 kts | 104° |
| 2026-04-22 20:08 | 24.56283 | 57.56247 | 30487 ft | 501 kts | 104° |
| 2026-04-22 20:09 | 24.55477 | 57.59985 | 30712 ft | 504 kts | 104° |
| 2026-04-22 20:09 | 24.54666 | 57.63741 | 30930 ft | 506 kts | 104° |
| 2026-04-22 20:09 | 24.53852 | 57.67508 | 31170 ft | 508 kts | 104° |
| 2026-04-22 20:09 | 24.53034 | 57.71287 | 31415 ft | 510 kts | 104° |
| 2026-04-22 20:10 | 24.52212 | 57.75079 | 31626 ft | 512 kts | 104° |
| 2026-04-22 20:10 | 24.51384 | 57.78891 | 31836 ft | 514 kts | 104° |
| 2026-04-22 20:10 | 24.50553 | 57.82716 | 32053 ft | 516 kts | 103° |
| 2026-04-22 20:10 | 24.49717 | 57.86558 | 32239 ft | 518 kts | 103° |
| 2026-04-22 20:11 | 24.48876 | 57.90417 | 32436 ft | 520 kts | 103° |
| 2026-04-22 20:11 | 24.48033 | 57.94282 | 32641 ft | 522 kts | 104° |
| 2026-04-22 20:11 | 24.47187 | 57.98156 | 32917 ft | 522 kts | 104° |
| 2026-04-22 20:11 | 24.46337 | 58.02040 | 33120 ft | 524 kts | 104° |
| 2026-04-22 20:12 | 24.45485 | 58.05930 | 33288 ft | 526 kts | 104° |
| 2026-04-22 20:12 | 24.44638 | 58.09791 | 33468 ft | 528 kts | 104° |
| 2026-04-22 20:12 | 24.44058 | 58.12435 | 33591 ft | 529 kts | 104° |
| 2026-04-22 20:12 | 24.42910 | 58.17654 | 33832 ft | 532 kts | 103° |
| 2026-04-22 20:13 | 24.42043 | 58.21594 | 34031 ft | 532 kts | 104° |
| 2026-04-22 20:13 | 24.41175 | 58.25533 | 34339 ft | 530 kts | 104° |
| 2026-04-22 20:13 | 24.40306 | 58.29466 | 34465 ft | 533 kts | 103° |
| 2026-04-22 20:14 | 24.38548 | 58.37412 | 34734 ft | 537 kts | 103° |
| 2026-04-22 20:14 | 24.37665 | 58.41396 | 34927 ft | 538 kts | 103° |
| 2026-04-22 20:14 | 24.36780 | 58.45386 | 35104 ft | 539 kts | 103° |
| 2026-04-22 20:14 | 24.35892 | 58.49385 | 35306 ft | 540 kts | 103° |
| 2026-04-22 20:15 | 24.35002 | 58.53381 | 35572 ft | 539 kts | 103° |
| 2026-04-22 20:15 | 24.34112 | 58.57379 | 35719 ft | 541 kts | 103° |
| 2026-04-22 20:15 | 24.33216 | 58.61395 | 35898 ft | 543 kts | 103° |
| 2026-04-22 20:15 | 24.32317 | 58.65419 | 36075 ft | 544 kts | 103° |
| 2026-04-22 20:16 | 24.31415 | 58.69450 | 36246 ft | 545 kts | 103° |
| 2026-04-22 20:16 | 24.30510 | 58.73492 | 36422 ft | 547 kts | 103° |
| 2026-04-22 20:16 | 24.29601 | 58.77542 | 36595 ft | 548 kts | 103° |
| 2026-04-22 20:16 | 24.28689 | 58.81606 | 36758 ft | 549 kts | 103° |
| 2026-04-22 20:17 | 24.27774 | 58.85674 | 36957 ft | 550 kts | 103° |
| 2026-04-22 20:17 | 24.26855 | 58.89754 | 37103 ft | 552 kts | 103° |
| 2026-04-22 20:17 | 24.25933 | 58.93842 | 37258 ft | 553 kts | 103° |
| 2026-04-22 20:17 | 24.25010 | 58.97934 | 37422 ft | 554 kts | 103° |
| 2026-04-22 20:18 | 24.24078 | 59.02056 | 37608 ft | 555 kts | 103° |
| 2026-04-22 20:18 | 24.23147 | 59.06166 | 37805 ft | 555 kts | 103° |
| 2026-04-22 20:18 | 24.22217 | 59.10267 | 38014 ft | 556 kts | 103° |
| 2026-04-22 20:18 | 24.21284 | 59.14381 | 38164 ft | 557 kts | 103° |
| 2026-04-22 20:19 | 24.20347 | 59.18502 | 38320 ft | 558 kts | 103° |
| 2026-04-22 20:19 | 24.19407 | 59.22633 | 38470 ft | 559 kts | 103° |
| 2026-04-22 20:19 | 24.18465 | 59.26767 | 38620 ft | 560 kts | 103° |
| 2026-04-22 20:19 | 24.17522 | 59.30898 | 38803 ft | 559 kts | 103° |
| 2026-04-22 20:20 | 24.16581 | 59.35014 | 39048 ft | 556 kts | 103° |
| 2026-04-22 20:20 | 24.15655 | 59.39060 | 39308 ft | 554 kts | 103° |
| 2026-04-22 20:20 | 24.14718 | 59.43146 | 39470 ft | 553 kts | 103° |
| 2026-04-22 20:20 | 24.13782 | 59.47228 | 39618 ft | 553 kts | 103° |
| 2026-04-22 20:21 | 24.12844 | 59.51311 | 39749 ft | 553 kts | 103° |
| 2026-04-22 20:21 | 24.11906 | 59.55390 | 39891 ft | 553 kts | 103° |
| 2026-04-22 20:21 | 24.10967 | 59.59468 | 40045 ft | 552 kts | 103° |
| 2026-04-22 20:21 | 24.10030 | 59.63534 | 40246 ft | 550 kts | 103° |
| 2026-04-22 20:22 | 24.09093 | 59.67588 | 40445 ft | 548 kts | 103° |
| 2026-04-22 20:22 | 24.08159 | 59.71632 | 40586 ft | 548 kts | 103° |
| 2026-04-22 20:22 | 24.07224 | 59.75667 | 40708 ft | 548 kts | 103° |
| 2026-04-22 20:23 | 24.05350 | 59.83750 | 40806 ft | 548 kts | 103° |
| 2026-04-22 20:23 | 24.03472 | 59.91827 | 40808 ft | 547 kts | 103° |
| 2026-04-22 20:24 | 24.01592 | 59.99890 | 40810 ft | 547 kts | 103° |
| 2026-04-22 20:24 | 23.99708 | 60.07952 | 40810 ft | 547 kts | 103° |
| 2026-04-22 20:25 | 23.97822 | 60.16001 | 40811 ft | 547 kts | 103° |
| 2026-04-22 20:25 | 23.95932 | 60.24048 | 40809 ft | 545 kts | 103° |
| 2026-04-22 20:26 | 23.94042 | 60.32072 | 40812 ft | 545 kts | 103° |
| 2026-04-22 20:26 | 23.92149 | 60.40094 | 40811 ft | 545 kts | 104° |
| 2026-04-22 20:27 | 23.90253 | 60.48104 | 40822 ft | 545 kts | 104° |
| 2026-04-22 20:27 | 23.88355 | 60.56105 | 40817 ft | 543 kts | 104° |
| 2026-04-22 20:28 | 23.86455 | 60.64092 | 40816 ft | 543 kts | 104° |
| 2026-04-22 20:28 | 23.84551 | 60.72078 | 40818 ft | 543 kts | 104° |
| 2026-04-22 20:29 | 23.82644 | 60.80060 | 40816 ft | 542 kts | 103° |
| 2026-04-22 20:29 | 23.80750 | 60.87962 | 40816 ft | 541 kts | 104° |
| 2026-04-22 20:30 | 23.78842 | 60.95907 | 40816 ft | 541 kts | 104° |
| 2026-04-22 20:30 | 23.76929 | 61.03855 | 40815 ft | 541 kts | 104° |
| 2026-04-22 20:31 | 23.75013 | 61.11794 | 40814 ft | 540 kts | 104° |
| 2026-04-22 20:31 | 23.73096 | 61.19717 | 40816 ft | 540 kts | 104° |
| 2026-04-22 20:32 | 23.71178 | 61.27628 | 40821 ft | 540 kts | 104° |
| 2026-04-22 20:32 | 23.69578 | 61.34214 | 40832 ft | 540 kts | 104° |
| 2026-04-22 20:33 | 23.67655 | 61.42107 | 40816 ft | 538 kts | 104° |
| 2026-04-22 20:33 | 23.65732 | 61.49982 | 40827 ft | 537 kts | 104° |
| 2026-04-22 20:34 | 23.63807 | 61.57851 | 40817 ft | 537 kts | 104° |
| 2026-04-22 20:34 | 23.61877 | 61.65721 | 40823 ft | 537 kts | 104° |
| 2026-04-22 20:35 | 23.59943 | 61.73587 | 40824 ft | 537 kts | 104° |
| 2026-04-22 20:35 | 23.58006 | 61.81446 | 40823 ft | 537 kts | 104° |
| 2026-04-22 20:36 | 23.56065 | 61.89304 | 40821 ft | 537 kts | 104° |
| 2026-04-22 20:36 | 23.54120 | 61.97161 | 40823 ft | 536 kts | 104° |
| 2026-04-22 20:37 | 23.52175 | 62.04998 | 40823 ft | 536 kts | 104° |
| 2026-04-22 20:37 | 23.50224 | 62.12843 | 40824 ft | 536 kts | 104° |
| 2026-04-22 20:38 | 23.48269 | 62.20682 | 40832 ft | 536 kts | 104° |
| 2026-04-22 20:38 | 23.46313 | 62.28512 | 40833 ft | 535 kts | 104° |
| 2026-04-22 20:39 | 23.44356 | 62.36324 | 40827 ft | 535 kts | 104° |
| 2026-04-22 20:39 | 23.42395 | 62.44138 | 40831 ft | 535 kts | 104° |
| 2026-04-22 20:40 | 23.40431 | 62.51943 | 40826 ft | 535 kts | 104° |
| 2026-04-22 20:40 | 23.38465 | 62.59741 | 40829 ft | 533 kts | 105° |
| 2026-04-22 20:41 | 23.36499 | 62.67518 | 40825 ft | 533 kts | 104° |
| 2026-04-22 20:41 | 23.34529 | 62.75296 | 40830 ft | 533 kts | 104° |
| 2026-04-22 20:42 | 23.32566 | 62.83029 | 40837 ft | 533 kts | 105° |
| 2026-04-22 20:42 | 23.30576 | 62.90848 | 40828 ft | 532 kts | 105° |
| 2026-04-22 20:43 | 23.28611 | 62.98553 | 40826 ft | 532 kts | 105° |
| 2026-04-22 20:43 | 23.26617 | 63.06357 | 40834 ft | 532 kts | 105° |
| 2026-04-22 20:44 | 23.24645 | 63.14055 | 40839 ft | 532 kts | 105° |
| 2026-04-22 20:44 | 23.22659 | 63.21790 | 40831 ft | 531 kts | 105° |
| 2026-04-22 20:45 | 23.20674 | 63.29508 | 40821 ft | 530 kts | 105° |
| 2026-04-22 20:45 | 23.18669 | 63.37280 | 40829 ft | 530 kts | 105° |
| 2026-04-22 20:46 | 23.15678 | 63.48853 | 40833 ft | 529 kts | 105° |
| 2026-04-22 20:46 | 23.13697 | 63.56493 | 40831 ft | 529 kts | 105° |
| 2026-04-22 20:47 | 23.11699 | 63.64183 | 40832 ft | 529 kts | 105° |
| 2026-04-22 20:47 | 23.09698 | 63.71869 | 40832 ft | 529 kts | 105° |
| 2026-04-22 20:48 | 23.07695 | 63.79546 | 40830 ft | 528 kts | 105° |
| 2026-04-22 20:48 | 23.05897 | 63.87253 | 40836 ft | 526 kts | 97° |
| 2026-04-22 20:49 | 23.04940 | 63.95119 | 40829 ft | 525 kts | 95° |
| 2026-04-22 20:49 | 23.04140 | 64.03002 | 40831 ft | 525 kts | 95° |
| 2026-04-22 20:50 | 23.03360 | 64.10887 | 40827 ft | 524 kts | 95° |
| 2026-04-22 20:50 | 23.02565 | 64.18743 | 40828 ft | 523 kts | 95° |
| 2026-04-22 20:51 | 23.01756 | 64.26594 | 40830 ft | 523 kts | 95° |
| 2026-04-22 20:51 | 23.00941 | 64.34447 | 40835 ft | 523 kts | 95° |
| 2026-04-22 20:52 | 23.00122 | 64.42291 | 40832 ft | 523 kts | 95° |
| 2026-04-22 20:52 | 22.99302 | 64.50122 | 40832 ft | 522 kts | 96° |
| 2026-04-22 20:53 | 22.98478 | 64.57953 | 40831 ft | 522 kts | 96° |
| 2026-04-22 20:53 | 22.97650 | 64.65782 | 40832 ft | 522 kts | 96° |
| 2026-04-22 20:54 | 22.96818 | 64.73610 | 40830 ft | 522 kts | 96° |
| 2026-04-22 20:54 | 22.95992 | 64.81442 | 40826 ft | 522 kts | 94° |
| 2026-04-22 20:55 | 22.95807 | 64.89300 | 40828 ft | 521 kts | 89° |
| 2026-04-22 20:55 | 22.95836 | 64.97160 | 40831 ft | 521 kts | 88° |
| 2026-04-22 20:56 | 22.95898 | 65.05021 | 40829 ft | 520 kts | 88° |
| 2026-04-22 20:56 | 22.95949 | 65.12818 | 40830 ft | 520 kts | 88° |
| 2026-04-22 20:57 | 22.95988 | 65.20665 | 40833 ft | 520 kts | 88° |
| 2026-04-22 20:57 | 22.96019 | 65.28507 | 40826 ft | 520 kts | 88° |
| 2026-04-22 20:58 | 22.96047 | 65.36355 | 40829 ft | 520 kts | 88° |
| 2026-04-22 20:58 | 22.96071 | 65.44206 | 40830 ft | 520 kts | 89° |
| 2026-04-22 20:59 | 22.96092 | 65.52049 | 40832 ft | 520 kts | 89° |
| 2026-04-22 20:59 | 22.96109 | 65.59890 | 40832 ft | 520 kts | 89° |
| 2026-04-22 21:00 | 22.96121 | 65.67738 | 40838 ft | 520 kts | 89° |
| 2026-04-22 21:00 | 22.96130 | 65.75583 | 40837 ft | 520 kts | 89° |
| 2026-04-22 21:01 | 22.96135 | 65.83425 | 40834 ft | 520 kts | 89° |
| 2026-04-22 21:01 | 22.96137 | 65.91268 | 40834 ft | 520 kts | 89° |
| 2026-04-22 21:02 | 22.96134 | 65.99050 | 40836 ft | 520 kts | 89° |
| 2026-04-22 21:02 | 22.96127 | 66.06892 | 40837 ft | 520 kts | 89° |
| 2026-04-22 21:03 | 22.96117 | 66.14732 | 40839 ft | 520 kts | 89° |
| 2026-04-22 21:03 | 22.96103 | 66.22571 | 40837 ft | 520 kts | 89° |
| 2026-04-22 21:04 | 22.96085 | 66.30411 | 40838 ft | 520 kts | 89° |
| 2026-04-22 21:04 | 22.96063 | 66.38253 | 40837 ft | 520 kts | 89° |
| 2026-04-22 21:05 | 22.96037 | 66.46088 | 40836 ft | 520 kts | 89° |
| 2026-04-22 21:05 | 22.96008 | 66.53932 | 40832 ft | 520 kts | 89° |
| 2026-04-22 21:06 | 22.95975 | 66.61771 | 40839 ft | 520 kts | 89° |
| 2026-04-22 21:06 | 22.95937 | 66.69610 | 40842 ft | 519 kts | 89° |
| 2026-04-22 21:07 | 22.95896 | 66.77450 | 40834 ft | 519 kts | 89° |
| 2026-04-22 21:07 | 22.95851 | 66.85283 | 40838 ft | 519 kts | 89° |
| 2026-04-22 21:08 | 22.95802 | 66.93119 | 40840 ft | 519 kts | 89° |
| 2026-04-22 21:08 | 22.95768 | 67.00943 | 40838 ft | 518 kts | 89° |
| 2026-04-22 21:09 | 22.95792 | 67.08751 | 40827 ft | 518 kts | 88° |
| 2026-04-22 21:09 | 22.95820 | 67.16581 | 40838 ft | 518 kts | 88° |
| 2026-04-22 21:10 | 22.95837 | 67.24345 | 40839 ft | 518 kts | 89° |
| 2026-04-22 21:10 | 22.95844 | 67.32158 | 40838 ft | 517 kts | 89° |
| 2026-04-22 21:11 | 22.95846 | 67.39957 | 40837 ft | 517 kts | 89° |
| 2026-04-22 21:11 | 22.95845 | 67.47764 | 40837 ft | 517 kts | 89° |
| 2026-04-22 21:12 | 22.95840 | 67.55564 | 40845 ft | 517 kts | 89° |
| 2026-04-22 21:12 | 22.95831 | 67.63357 | 40840 ft | 516 kts | 89° |
| 2026-04-22 21:13 | 22.95819 | 67.71145 | 40834 ft | 516 kts | 89° |
| 2026-04-22 21:13 | 22.95802 | 67.78927 | 40839 ft | 516 kts | 89° |
| 2026-04-22 21:14 | 22.95783 | 67.86714 | 40828 ft | 516 kts | 89° |
| 2026-04-22 21:14 | 22.95777 | 67.94498 | 40836 ft | 516 kts | 89° |
| 2026-04-22 21:15 | 22.95791 | 68.02284 | 40828 ft | 516 kts | 89° |
| 2026-04-22 21:15 | 22.95800 | 68.10070 | 40834 ft | 516 kts | 89° |
| 2026-04-22 21:16 | 22.95801 | 68.17851 | 40834 ft | 516 kts | 89° |
| 2026-04-22 21:16 | 22.95796 | 68.25637 | 40826 ft | 516 kts | 89° |
| 2026-04-22 21:17 | 22.95788 | 68.33414 | 40841 ft | 515 kts | 89° |
| 2026-04-22 21:17 | 22.96588 | 68.41099 | 40828 ft | 512 kts | 76° |
| 2026-04-22 21:18 | 22.98213 | 68.48622 | 40844 ft | 512 kts | 75° |
| 2026-04-22 21:18 | 22.99884 | 68.56138 | 40833 ft | 512 kts | 75° |
| 2026-04-22 21:19 | 23.01543 | 68.63599 | 40836 ft | 511 kts | 75° |
| 2026-04-22 21:19 | 23.03209 | 68.71101 | 40826 ft | 511 kts | 75° |
| 2026-04-22 21:20 | 23.04601 | 68.77385 | 40831 ft | 511 kts | 75° |
| 2026-04-22 21:20 | 23.06263 | 68.84897 | 40834 ft | 511 kts | 75° |
| 2026-04-22 21:21 | 23.07918 | 68.92403 | 40837 ft | 510 kts | 75° |
| 2026-04-22 21:21 | 23.09566 | 68.99891 | 40834 ft | 510 kts | 75° |
| 2026-04-22 21:22 | 23.11212 | 69.07386 | 40834 ft | 510 kts | 75° |
| 2026-04-22 21:22 | 23.12852 | 69.14875 | 40832 ft | 510 kts | 75° |
| 2026-04-22 21:23 | 23.14489 | 69.22366 | 40835 ft | 509 kts | 75° |
| 2026-04-22 21:23 | 23.16109 | 69.29794 | 40834 ft | 508 kts | 75° |
| 2026-04-22 21:24 | 23.17733 | 69.37264 | 40834 ft | 508 kts | 75° |
| 2026-04-22 21:24 | 23.19353 | 69.44732 | 40836 ft | 508 kts | 75° |
| 2026-04-22 21:25 | 23.20972 | 69.52210 | 40836 ft | 508 kts | 75° |
| 2026-04-22 21:25 | 23.22583 | 69.59674 | 40837 ft | 507 kts | 75° |
| 2026-04-22 21:26 | 23.24189 | 69.67130 | 40836 ft | 506 kts | 75° |
| 2026-04-22 21:26 | 23.25791 | 69.74590 | 40834 ft | 506 kts | 75° |
| 2026-04-22 21:27 | 23.27389 | 69.82045 | 40830 ft | 506 kts | 75° |
| 2026-04-22 21:27 | 23.28984 | 69.89506 | 40833 ft | 506 kts | 75° |
| 2026-04-22 21:28 | 23.30571 | 69.96948 | 40830 ft | 505 kts | 75° |
| 2026-04-22 21:28 | 23.32155 | 70.04392 | 40831 ft | 505 kts | 76° |
| 2026-04-22 21:29 | 23.33735 | 70.11837 | 40830 ft | 505 kts | 76° |
| 2026-04-22 21:29 | 23.35310 | 70.19277 | 40827 ft | 505 kts | 76° |
| 2026-04-22 21:30 | 23.36882 | 70.26720 | 40826 ft | 504 kts | 76° |
| 2026-04-22 21:30 | 23.38447 | 70.34148 | 40827 ft | 503 kts | 76° |
| 2026-04-22 21:31 | 23.40008 | 70.41578 | 40702 ft | 504 kts | 76° |
| 2026-04-22 21:31 | 23.40787 | 70.45289 | 40459 ft | 503 kts | 76° |
| 2026-04-22 21:31 | 23.41563 | 70.48993 | 39989 ft | 501 kts | 76° |
| 2026-04-22 21:32 | 23.42338 | 70.52697 | 39384 ft | 501 kts | 76° |
| 2026-04-22 21:32 | 23.43110 | 70.56391 | 38744 ft | 501 kts | 76° |
| 2026-04-22 21:32 | 23.43883 | 70.60094 | 37994 ft | 501 kts | 77° |
| 2026-04-22 21:32 | 23.44653 | 70.63788 | 37303 ft | 500 kts | 77° |
| 2026-04-22 21:33 | 23.45419 | 70.67469 | 36617 ft | 499 kts | 77° |
| 2026-04-22 21:33 | 23.46185 | 70.71154 | 35933 ft | 498 kts | 77° |
| 2026-04-22 21:33 | 23.46950 | 70.74838 | 35203 ft | 499 kts | 77° |
| 2026-04-22 21:33 | 23.47714 | 70.78521 | 34422 ft | 501 kts | 77° |
| 2026-04-22 21:34 | 23.48484 | 70.82235 | 33567 ft | 504 kts | 77° |
| 2026-04-22 21:34 | 23.49255 | 70.85964 | 32659 ft | 506 kts | 77° |
| 2026-04-22 21:34 | 23.50029 | 70.89712 | 31778 ft | 507 kts | 77° |
| 2026-04-22 21:34 | 23.50804 | 70.93468 | 30902 ft | 509 kts | 77° |
| 2026-04-22 21:35 | 23.51471 | 70.97185 | 30346 ft | 504 kts | 83° |
| 2026-04-22 21:35 | 23.51466 | 71.00967 | 29766 ft | 499 kts | 98° |
| 2026-04-22 21:35 | 23.50592 | 71.04649 | 29090 ft | 493 kts | 110° |
| 2026-04-22 21:35 | 23.49393 | 71.08072 | 28486 ft | 488 kts | 112° |
| 2026-04-22 21:36 | 23.48139 | 71.11535 | 27883 ft | 483 kts | 112° |
| 2026-04-22 21:36 | 23.46921 | 71.14926 | 27274 ft | 478 kts | 112° |
| 2026-04-22 21:36 | 23.45740 | 71.18241 | 26707 ft | 474 kts | 112° |
| 2026-04-22 21:36 | 23.44542 | 71.21619 | 26111 ft | 469 kts | 112° |
| 2026-04-22 21:37 | 23.43374 | 71.24921 | 25515 ft | 465 kts | 112° |
| 2026-04-22 21:37 | 23.42233 | 71.28150 | 24941 ft | 461 kts | 112° |
| 2026-04-22 21:37 | 23.41087 | 71.31393 | 24374 ft | 457 kts | 112° |
| 2026-04-22 21:37 | 23.39951 | 71.34609 | 23802 ft | 453 kts | 112° |
| 2026-04-22 21:38 | 23.38823 | 71.37799 | 23178 ft | 450 kts | 112° |
| 2026-04-22 21:38 | 23.37704 | 71.40961 | 22541 ft | 445 kts | 112° |
| 2026-04-22 21:38 | 23.36598 | 71.44084 | 21959 ft | 439 kts | 112° |
| 2026-04-22 21:38 | 23.35506 | 71.47167 | 21381 ft | 434 kts | 112° |
| 2026-04-22 21:39 | 23.34426 | 71.50214 | 20787 ft | 430 kts | 112° |
| 2026-04-22 21:39 | 23.33354 | 71.53236 | 20198 ft | 426 kts | 112° |
| 2026-04-22 21:39 | 23.32290 | 71.56232 | 19627 ft | 423 kts | 112° |
| 2026-04-22 21:39 | 23.31235 | 71.59204 | 19042 ft | 420 kts | 112° |
| 2026-04-22 21:40 | 23.30185 | 71.62157 | 18446 ft | 417 kts | 111° |
| 2026-04-22 21:40 | 23.29144 | 71.65086 | 17831 ft | 414 kts | 111° |
| 2026-04-22 21:40 | 23.28110 | 71.67991 | 17211 ft | 410 kts | 111° |
| 2026-04-22 21:40 | 23.27085 | 71.70868 | 16630 ft | 406 kts | 111° |
| 2026-04-22 21:41 | 23.26070 | 71.73715 | 16052 ft | 403 kts | 112° |
| 2026-04-22 21:41 | 23.25063 | 71.76540 | 15483 ft | 400 kts | 112° |
| 2026-04-22 21:41 | 23.24056 | 71.79360 | 14913 ft | 398 kts | 112° |
| 2026-04-22 21:41 | 23.23057 | 71.82155 | 14345 ft | 396 kts | 111° |
| 2026-04-22 21:42 | 23.22061 | 71.84946 | 13784 ft | 395 kts | 111° |
| 2026-04-22 21:42 | 23.21069 | 71.87719 | 13178 ft | 393 kts | 112° |
| 2026-04-22 21:42 | 23.20084 | 71.90474 | 12599 ft | 389 kts | 112° |
| 2026-04-22 21:42 | 23.19108 | 71.93206 | 12043 ft | 386 kts | 112° |
| 2026-04-22 21:43 | 23.18139 | 71.95912 | 11489 ft | 383 kts | 113° |
| 2026-04-22 21:43 | 23.17178 | 71.98596 | 11003 ft | 378 kts | 113° |
| 2026-04-22 21:43 | 23.16245 | 72.01200 | 10859 ft | 361 kts | 113° |
| 2026-04-22 21:43 | 23.15356 | 72.03684 | 10765 ft | 344 kts | 114° |
| 2026-04-22 21:44 | 23.14506 | 72.06054 | 10647 ft | 330 kts | 114° |
| 2026-04-22 21:44 | 23.13690 | 72.08327 | 10490 ft | 317 kts | 114° |
| 2026-04-22 21:44 | 23.12914 | 72.10485 | 10355 ft | 306 kts | 114° |
| 2026-04-22 21:44 | 23.12144 | 72.12624 | 10062 ft | 303 kts | 115° |
| 2026-04-22 21:45 | 23.11368 | 72.14778 | 9722 ft | 302 kts | 115° |
| 2026-04-22 21:45 | 23.10605 | 72.16888 | 9380 ft | 307 kts | 115° |
| 2026-04-22 21:45 | 23.09822 | 72.19057 | 9060 ft | 309 kts | 115° |
| 2026-04-22 21:45 | 23.09041 | 72.21224 | 8742 ft | 307 kts | 115° |
| 2026-04-22 21:46 | 23.08264 | 72.23381 | 8420 ft | 306 kts | 115° |
| 2026-04-22 21:46 | 23.07491 | 72.25527 | 8111 ft | 305 kts | 116° |
| 2026-04-22 21:46 | 23.06719 | 72.27664 | 7788 ft | 304 kts | 116° |
| 2026-04-22 21:46 | 23.06003 | 72.29824 | 7461 ft | 306 kts | 108° |
| 2026-04-22 21:47 | 23.05926 | 72.32135 | 7191 ft | 311 kts | 79° |
| 2026-04-22 21:47 | 23.06578 | 72.34379 | 6973 ft | 313 kts | 70° |
| 2026-04-22 21:47 | 23.07362 | 72.36577 | 6727 ft | 312 kts | 70° |
| 2026-04-22 21:47 | 23.08147 | 72.38772 | 6488 ft | 311 kts | 70° |
| 2026-04-22 21:48 | 23.08907 | 72.40923 | 6353 ft | 299 kts | 70° |
| 2026-04-22 21:48 | 23.09633 | 72.42994 | 6212 ft | 287 kts | 70° |
| 2026-04-22 21:48 | 23.10327 | 72.44985 | 6067 ft | 277 kts | 70° |
| 2026-04-22 21:48 | 23.10997 | 72.46917 | 5855 ft | 270 kts | 70° |
| 2026-04-22 21:49 | 23.11653 | 72.48799 | 5655 ft | 263 kts | 70° |
| 2026-04-22 21:49 | 23.12581 | 72.50487 | 5458 ft | 260 kts | 48° |
| 2026-04-22 21:49 | 23.13822 | 72.51909 | 5269 ft | 259 kts | 43° |
| 2026-04-22 21:49 | 23.15103 | 72.53279 | 5115 ft | 258 kts | 43° |
| 2026-04-22 21:50 | 23.16381 | 72.54646 | 4964 ft | 257 kts | 44° |
| 2026-04-22 21:50 | 23.17644 | 72.56006 | 4799 ft | 255 kts | 44° |
| 2026-04-22 21:50 | 23.18901 | 72.57368 | 4650 ft | 254 kts | 44° |
| 2026-04-22 21:50 | 23.20148 | 72.58722 | 4478 ft | 253 kts | 44° |
| 2026-04-22 21:51 | 23.21387 | 72.60070 | 4347 ft | 252 kts | 44° |
| 2026-04-22 21:51 | 23.22620 | 72.61411 | 4177 ft | 248 kts | 44° |
| 2026-04-22 21:51 | 23.23835 | 72.62734 | 4054 ft | 247 kts | 45° |
| 2026-04-22 21:52 | 23.26249 | 72.65367 | 3746 ft | 245 kts | 45° |
| 2026-04-22 21:52 | 23.27448 | 72.66674 | 3601 ft | 244 kts | 45° |
| 2026-04-22 21:52 | 23.28636 | 72.67970 | 3471 ft | 237 kts | 45° |
| 2026-04-22 21:52 | 23.29770 | 72.69210 | 3380 ft | 226 kts | 44° |
| 2026-04-22 21:53 | 23.30856 | 72.70404 | 3191 ft | 219 kts | 46° |
| 2026-04-22 21:53 | 23.31618 | 72.71790 | 3046 ft | 213 kts | 79° |
| 2026-04-22 21:53 | 23.31413 | 72.73311 | 2997 ft | 204 kts | 125° |
| 2026-04-22 21:53 | 23.30491 | 72.74473 | 3010 ft | 212 kts | 142° |
| 2026-04-22 21:54 | 23.29153 | 72.75389 | 2952 ft | 250 kts | 160° |
| 2026-04-22 21:54 | 23.27462 | 72.76034 | 2874 ft | 257 kts | 167° |
| 2026-04-22 21:54 | 23.25807 | 72.76625 | 2773 ft | 245 kts | 161° |
| 2026-04-22 21:54 | 23.24269 | 72.77322 | 2664 ft | 233 kts | 162° |
| 2026-04-22 21:55 | 23.22762 | 72.77760 | 2549 ft | 216 kts | 179° |
| 2026-04-22 21:55 | 23.21373 | 72.77458 | 2441 ft | 197 kts | 207° |
| 2026-04-22 21:55 | 23.20206 | 72.76773 | 2320 ft | 187 kts | 219° |
| 2026-04-22 21:55 | 23.19262 | 72.75819 | 2225 ft | 185 kts | 230° |
| 2026-04-22 21:56 | 23.18355 | 72.74839 | 2104 ft | 182 kts | 228° |
| 2026-04-22 21:56 | 23.17482 | 72.73912 | 2034 ft | 168 kts | 228° |
| 2026-04-22 21:56 | 23.16668 | 72.73047 | 2012 ft | 163 kts | 229° |
| 2026-04-22 21:56 | 23.15894 | 72.72226 | 2006 ft | 149 kts | 229° |
| 2026-04-22 21:57 | 23.15168 | 72.71451 | 1882 ft | 143 kts | 229° |
| 2026-04-22 21:57 | 23.14479 | 72.70710 | 1699 ft | 135 kts | 230° |
| 2026-04-22 21:57 | 23.13833 | 72.70016 | 1527 ft | 131 kts | 232° |
| 2026-04-22 21:57 | 23.13239 | 72.69375 | 1364 ft | 132 kts | 231° |
| 2026-04-22 21:58 | 23.12587 | 72.68673 | 1210 ft | 133 kts | 230° |
| 2026-04-22 21:58 | 23.11929 | 72.67966 | 1044 ft | 134 kts | 228° |
| 2026-04-22 21:58 | 23.11267 | 72.67255 | 879 ft | 134 kts | 226° |
| 2026-04-22 21:58 | 23.10602 | 72.66541 | 708 ft | 135 kts | 225° |
| 2026-04-22 21:59 | 23.09939 | 72.65828 | 535 ft | 134 kts | 225° |
| 2026-04-22 21:59 | 23.09277 | 72.65118 | 372 ft | 133 kts | 225° |
| 2026-04-22 21:59 | 23.08616 | 72.64408 | 221 ft | 132 kts | 225° |
| 2026-04-22 21:59 | 23.08042 | 72.63787 | 212 ft | 95 kts | 224° |
| 2026-04-22 22:00 | 23.07673 | 72.63391 | 210 ft | 62 kts | 225° |
| 2026-04-22 22:00 | 23.07394 | 72.63093 | 210 ft | 47 kts | 224° |
| 2026-04-22 22:00 | 23.07213 | 72.62897 | 209 ft | 25 kts | 236° |
| 2026-04-22 22:00 | 23.07173 | 72.62761 | 209 ft | 19 kts | 258° |
| 2026-04-22 22:01 | 23.07156 | 72.62668 | 206 ft | 12 kts | 258° |
| 2026-04-22 22:01 | 23.07165 | 72.62589 | 209 ft | 10 kts | 300° |
| 2026-04-22 22:01 | 23.07204 | 72.62546 | 207 ft | 10 kts | 315° |
| 2026-04-22 22:01 | 23.07263 | 72.62483 | 195 ft | 15 kts | 316° |
| 2026-04-22 22:02 | 23.07301 | 72.62444 | 198 ft | 5 kts | 316° |
| 2026-04-22 22:02 | 23.07322 | 72.62422 | 194 ft | 4 kts | 315° |
| 2026-04-22 22:02 | 23.07329 | 72.62415 | 195 ft | 0 kts | 315° |